Terminal Aerodrome Forecast
Issued by NWS Sterling, VA

Home | Current Version | Previous Version | Text Only | Print | Product List | Glossary On
Versions: 1 2 3 4 5 6 7 8 9 10
000
FTUS41 KLWX 280800 AAA
TAFDCA
TAF AMD
KDCA 280859Z 2809/2906 20004KT P6SM BKN080
     FM281100 22004KT P6SM BKN070
     FM281600 28003KT P6SM -SHRA OVC060
     FM281800 32005KT 3SM -RA OVC040
     FM290200 35007KT 6SM -RA OVC015=

USA.gov is the U.S. government's official web portal to all federal, state and local government web resources and services.